Time;durP1;ratioP1;P1;durP2;ratioP2;P2;SDS_P1;SDS_P2;PMS_P1;PMS_P2;Temp;Humidity;BMP_temperature;BMP_pressure;BME280_temperature;BME280_humidity;BME280_pressure;Samples;Min_cycle;Max_cycle;Signal;HPM_P1;HPM_P2
2022/09/02 00:02:17;;;;;;;1.30;1.10;;;18.50;99.90;;;;;;4992198;28;20204;-78
2022/09/02 00:04:43;;;;;;;2.10;1.17;;;18.30;99.90;;;;;;4993704;28;20180;-80
2022/09/02 00:07:09;;;;;;;3.10;1.33;;;18.40;99.90;;;;;;4993874;28;20482;-78
2022/09/02 00:09:36;;;;;;;3.07;1.20;;;18.40;99.90;;;;;;4993415;28;20419;-77
2022/09/02 00:12:03;;;;;;;2.37;1.27;;;18.30;99.90;;;;;;4991828;28;20201;-78
2022/09/02 00:14:33;;;;;;;2.43;1.90;;;18.30;99.90;;;;;;4992663;28;20577;-76
2022/09/02 00:17:00;;;;;;;2.17;1.10;;;18.30;99.90;;;;;;4993303;28;20430;-77
2022/09/02 00:19:27;;;;;;;4.60;1.30;;;18.20;99.90;;;;;;4993538;28;20423;-78
2022/09/02 00:21:54;;;;;;;1.40;1.27;;;18.10;99.90;;;;;;4993129;28;20446;-78
2022/09/02 00:24:21;;;;;;;2.50;1.43;;;18.10;99.90;;;;;;4993435;28;20470;-77
2022/09/02 00:26:48;;;;;;;2.83;1.60;;;18.10;99.90;;;;;;4993376;28;21015;-80
2022/09/02 00:29:14;;;;;;;2.57;1.47;;;18.20;99.90;;;;;;4992607;28;20431;-76
2022/09/02 00:31:44;;;;;;;2.33;1.20;;;18.10;99.90;;;;;;4992081;28;20446;-78
2022/09/02 00:34:10;;;;;;;2.30;1.30;;;18.10;99.90;;;;;;4992683;28;20415;-78
2022/09/02 00:36:36;;;;;;;1.93;1.40;;;18.10;99.90;;;;;;4995769;28;20448;-80
2022/09/02 00:39:04;;;;;;;2.70;1.50;;;18.10;99.90;;;;;;4995573;28;20424;-79
2022/09/02 00:41:31;;;;;;;2.30;1.30;;;18.10;99.90;;;;;;4995172;28;20250;-79
2022/09/02 00:44:03;;;;;;;2.90;1.40;;;18.00;99.90;;;;;;4994213;28;20417;-78
2022/09/02 00:46:31;;;;;;;2.73;1.20;;;18.00;99.90;;;;;;4995217;28;20633;-79
2022/09/02 00:49:15;;;;;;;2.87;1.57;;;18.00;99.90;;;;;;4995269;28;20788;-77
2022/09/02 00:51:51;;;;;;;1.60;1.20;;;17.90;99.90;;;;;;4995096;28;20577;-75
2022/09/02 00:54:19;;;;;;;3.77;1.17;;;17.90;99.90;;;;;;4993865;28;20462;-76
2022/09/02 00:56:46;;;;;;;5.10;1.63;;;17.80;99.90;;;;;;4995491;28;20419;-79
2022/09/02 00:59:20;;;;;;;3.40;1.13;;;17.80;99.90;;;;;;4995086;28;20427;-76
2022/09/02 01:01:46;;;;;;;2.17;1.10;;;17.90;99.90;;;;;;4994863;28;20482;-77
2022/09/02 01:04:12;;;;;;;2.17;1.50;;;17.80;99.90;;;;;;4994870;28;20451;-77
2022/09/02 01:06:38;;;;;;;1.27;1.03;;;17.80;99.90;;;;;;4977585;28;20204;-78
2022/09/02 01:09:11;;;;;;;6.20;1.30;;;17.80;99.90;;;;;;4995058;28;20558;-80
2022/09/02 01:11:43;;;;;;;4.87;1.30;;;17.70;99.90;;;;;;4994746;28;20439;-77
2022/09/02 01:14:12;;;;;;;2.20;1.70;;;17.70;99.90;;;;;;4995731;28;20420;-79
2022/09/02 01:16:45;;;;;;;2.00;1.63;;;17.70;99.90;;;;;;4994826;28;20790;-76
2022/09/02 01:19:21;;;;;;;6.03;1.83;;;17.70;99.90;;;;;;4994754;28;20397;-76
2022/09/02 01:21:53;;;;;;;3.00;1.50;;;17.70;99.90;;;;;;4994610;28;20439;-80
2022/09/02 01:24:21;;;;;;;3.97;1.63;;;17.70;99.90;;;;;;4994928;28;20415;-76
2022/09/02 01:26:47;;;;;;;2.27;1.43;;;17.70;99.90;;;;;;4994804;28;20466;-80
2022/09/02 01:29:15;;;;;;;4.23;1.60;;;17.60;99.90;;;;;;4870645;28;3619325;-75
2022/09/02 01:31:40;;;;;;;1.83;1.50;;;17.60;99.90;;;;;;4995399;28;20447;-78
2022/09/02 01:34:06;;;;;;;4.93;1.43;;;17.70;99.90;;;;;;4994422;28;20927;-77
2022/09/02 01:36:36;;;;;;;1.60;1.27;;;17.60;99.90;;;;;;4978404;28;20234;-79
2022/09/02 01:39:02;;;;;;;3.70;1.30;;;17.60;99.90;;;;;;4995542;28;20262;-76
2022/09/02 01:41:28;;;;;;;1.80;1.33;;;17.60;99.90;;;;;;4995105;28;20451;-77
2022/09/02 01:43:54;;;;;;;2.90;1.40;;;17.60;99.90;;;;;;4995356;28;20428;-78
2022/09/02 01:46:20;;;;;;;4.13;2.03;;;17.60;99.90;;;;;;4994277;28;20236;-78
2022/09/02 01:48:46;;;;;;;4.60;1.10;;;17.60;99.90;;;;;;4993901;28;20490;-79
2022/09/02 01:51:17;;;;;;;3.90;1.33;;;17.60;99.90;;;;;;4994732;28;20431;-79
2022/09/02 01:53:43;;;;;;;1.60;1.10;;;17.60;99.90;;;;;;4994889;28;20172;-79
2022/09/02 01:56:09;;;;;;;1.73;1.27;;;17.50;99.90;;;;;;4994574;28;20411;-77
2022/09/02 01:58:35;;;;;;;2.57;1.47;;;17.40;99.90;;;;;;4994928;28;20790;-78
2022/09/02 02:01:01;;;;;;;3.60;1.50;;;17.40;99.90;;;;;;4994701;28;20414;-79
2022/09/02 02:03:27;;;;;;;4.27;1.37;;;17.30;99.90;;;;;;4993518;28;20402;-79
2022/09/02 02:05:53;;;;;;;1.80;1.33;;;17.20;99.90;;;;;;4994850;28;20438;-77
2022/09/02 02:08:18;;;;;;;1.80;1.37;;;17.10;99.90;;;;;;4995003;28;20469;-77
2022/09/02 02:10:44;;;;;;;4.83;1.50;;;17.20;99.90;;;;;;4993103;28;20246;-76
2022/09/02 02:13:10;;;;;;;2.70;1.40;;;17.10;99.90;;;;;;4994743;28;20251;-79
2022/09/02 02:15:38;;;;;;;7.60;1.43;;;17.10;99.90;;;;;;4995002;28;20180;-77
2022/09/02 02:18:04;;;;;;;1.63;1.30;;;17.00;99.90;;;;;;4995120;28;20762;-79
2022/09/02 02:20:29;;;;;;;1.53;1.43;;;17.00;99.90;;;;;;4994511;28;20422;-81
2022/09/02 02:22:55;;;;;;;5.13;1.43;;;17.00;99.90;;;;;;4994907;28;20184;-75
2022/09/02 02:25:20;;;;;;;2.10;1.30;;;17.00;99.90;;;;;;4994935;28;20309;-77
2022/09/02 02:27:46;;;;;;;2.07;1.17;;;16.90;99.90;;;;;;4993729;28;20345;-78
2022/09/02 02:30:15;;;;;;;2.47;1.30;;;16.90;99.90;;;;;;4994325;28;20188;-78
2022/09/02 02:32:41;;;;;;;1.70;1.23;;;16.80;99.90;;;;;;4994732;28;20424;-76
2022/09/02 02:35:07;;;;;;;4.20;1.53;;;16.80;99.90;;;;;;4993809;28;20488;-79
2022/09/02 02:37:33;;;;;;;3.30;1.50;;;16.80;99.90;;;;;;4994608;28;20522;-75
2022/09/02 02:39:59;;;;;;;4.17;1.53;;;16.80;99.90;;;;;;4994178;28;20485;-77
2022/09/02 02:42:25;;;;;;;1.60;1.50;;;16.80;99.90;;;;;;4993268;28;20510;-77
2022/09/02 02:44:51;;;;;;;3.20;1.37;;;16.80;99.90;;;;;;4993014;28;20188;-79
2022/09/02 02:47:16;;;;;;;2.20;1.30;;;16.70;99.90;;;;;;4994335;28;20496;-78
2022/09/02 02:49:43;;;;;;;3.80;1.67;;;16.70;99.90;;;;;;4993942;28;20172;-77
2022/09/02 02:52:10;;;;;;;3.00;1.47;;;16.70;99.90;;;;;;4993005;28;20783;-79
2022/09/02 02:54:36;;;;;;;2.77;1.30;;;16.60;99.90;;;;;;4993058;28;20443;-77
2022/09/02 02:57:03;;;;;;;2.43;1.87;;;16.60;99.90;;;;;;4992745;28;20423;-78
2022/09/02 02:59:29;;;;;;;2.83;1.50;;;16.60;99.90;;;;;;4994159;28;20421;-75
2022/09/02 03:01:55;;;;;;;2.23;1.50;;;16.50;99.90;;;;;;4992700;28;20509;-78
2022/09/02 03:04:21;;;;;;;3.27;2.07;;;16.50;99.90;;;;;;4994457;28;20959;-76
2022/09/02 03:06:47;;;;;;;1.63;1.50;;;16.50;99.90;;;;;;4993103;28;20466;-78
2022/09/02 03:09:12;;;;;;;2.23;1.30;;;16.50;99.90;;;;;;4994249;28;20633;-76
2022/09/02 03:11:40;;;;;;;3.40;1.53;;;16.60;99.90;;;;;;4993720;28;20200;-78
2022/09/02 03:14:06;;;;;;;1.70;1.50;;;16.50;99.90;;;;;;4992904;28;20675;-79
2022/09/02 03:16:34;;;;;;;1.93;1.33;;;16.50;99.90;;;;;;4994068;28;20801;-79
2022/09/02 03:19:00;;;;;;;2.20;1.50;;;16.40;99.90;;;;;;4993917;28;20501;-77
2022/09/02 03:21:27;;;;;;;2.60;1.10;;;16.40;99.90;;;;;;4992371;28;20967;-75
2022/09/02 03:23:52;;;;;;;3.73;1.30;;;16.40;99.90;;;;;;4992833;28;20758;-78
2022/09/02 03:26:20;;;;;;;1.40;1.10;;;16.50;99.90;;;;;;4993742;28;20459;-79
2022/09/02 03:28:47;;;;;;;2.80;1.47;;;16.50;99.90;;;;;;4992548;28;20199;-76
2022/09/02 03:31:19;;;;;;;3.43;1.60;;;16.50;99.90;;;;;;4992265;28;20455;-78
2022/09/02 03:33:45;;;;;;;4.10;1.80;;;16.50;99.90;;;;;;4994085;28;20406;-79
2022/09/02 03:36:29;;;;;;;1.40;1.30;;;16.50;99.90;;;;;;4992542;28;20435;-79
2022/09/02 03:38:57;;;;;;;1.37;1.20;;;16.50;99.90;;;;;;4993770;28;20478;-76
2022/09/02 03:41:23;;;;;;;2.37;1.37;;;16.50;99.90;;;;;;4993243;28;20438;-78
2022/09/02 03:43:50;;;;;;;1.70;1.53;;;16.40;99.90;;;;;;4993934;28;20433;-76
2022/09/02 03:46:16;;;;;;;2.73;1.47;;;16.40;99.90;;;;;;4993617;28;20791;-79
2022/09/02 03:48:43;;;;;;;4.33;1.47;;;16.40;99.90;;;;;;4993791;28;20774;-79
2022/09/02 03:51:09;;;;;;;4.73;1.57;;;16.40;99.90;;;;;;4993141;28;20435;-78
2022/09/02 03:53:35;;;;;;;2.23;1.50;;;16.40;99.90;;;;;;4993797;28;20758;-79
2022/09/02 03:56:07;;;;;;;3.60;1.30;;;16.40;99.90;;;;;;4992639;28;20515;-78
2022/09/02 03:58:33;;;;;;;2.90;1.20;;;16.40;99.90;;;;;;4993978;28;20414;-78
2022/09/02 04:00:59;;;;;;;1.70;1.60;;;16.40;99.90;;;;;;4993140;28;20434;-77
2022/09/02 04:03:26;;;;;;;3.20;1.40;;;16.40;99.90;;;;;;4993591;28;20774;-76
2022/09/02 04:05:52;;;;;;;3.80;1.03;;;16.40;99.90;;;;;;4993393;28;20462;-80
2022/09/02 04:08:18;;;;;;;1.50;1.40;;;16.30;99.90;;;;;;4993919;28;20494;-78
2022/09/02 04:10:44;;;;;;;1.90;1.60;;;16.30;99.90;;;;;;4995823;28;20199;-76
2022/09/02 04:13:10;;;;;;;2.60;1.70;;;16.30;99.90;;;;;;4995785;28;20386;-80
2022/09/02 04:15:43;;;;;;;3.40;1.57;;;16.30;99.90;;;;;;4996132;28;20425;-79
2022/09/02 04:21:36;;;;;;;5.20;1.17;;;16.30;99.90;;;;;;4996847;28;20476;-80
2022/09/02 04:24:03;;;;;;;4.40;2.03;;;16.20;99.90;;;;;;4997445;28;20397;-76
2022/09/02 04:26:29;;;;;;;3.27;1.53;;;16.20;99.90;;;;;;4995931;28;20498;-77
2022/09/02 04:28:54;;;;;;;6.00;1.60;;;16.10;99.90;;;;;;4997082;28;20470;-76
2022/09/02 04:31:24;;;;;;;2.47;1.60;;;16.20;99.90;;;;;;4996569;28;20643;-78
2022/09/02 04:33:51;;;;;;;2.50;1.63;;;16.20;99.90;;;;;;4996967;28;20164;-76
2022/09/02 04:36:18;;;;;;;2.17;1.60;;;16.20;99.90;;;;;;4996828;28;20524;-77
2022/09/02 04:38:44;;;;;;;2.40;1.33;;;16.20;99.90;;;;;;4996725;28;20423;-79
2022/09/02 04:41:21;;;;;;;6.07;2.20;;;16.20;99.90;;;;;;4996240;28;20926;-80
2022/09/02 04:43:48;;;;;;;3.53;1.63;;;16.20;99.90;;;;;;4996659;28;20164;-78
2022/09/02 04:46:15;;;;;;;1.90;1.37;;;16.30;99.90;;;;;;4996409;28;20454;-76
2022/09/02 04:48:41;;;;;;;3.37;1.60;;;16.30;99.90;;;;;;4996404;28;20448;-77
2022/09/02 04:51:13;;;;;;;2.77;1.50;;;16.30;99.90;;;;;;4996138;28;20428;-79
2022/09/02 04:53:39;;;;;;;4.33;1.40;;;16.30;99.90;;;;;;4995316;28;20432;-79
2022/09/02 04:56:09;;;;;;;3.73;1.70;;;16.30;99.90;;;;;;4996306;28;20775;-77
2022/09/02 04:58:36;;;;;;;1.60;1.20;;;16.20;99.90;;;;;;4996638;28;20802;-78
2022/09/02 05:01:11;;;;;;;1.83;1.10;;;16.30;99.90;;;;;;4995504;28;20462;-78
2022/09/02 05:03:37;;;;;;;1.73;1.50;;;16.30;99.90;;;;;;4996562;28;20484;-75
2022/09/02 05:06:06;;;;;;;3.10;1.50;;;16.30;99.90;;;;;;4995076;28;20475;-77
2022/09/02 05:08:35;;;;;;;2.07;1.50;;;16.20;99.90;;;;;;4996415;28;20215;-78
2022/09/02 05:11:07;;;;;;;3.20;1.70;;;16.20;99.90;;;;;;4994810;28;20447;-80
2022/09/02 05:13:33;;;;;;;2.80;1.03;;;16.20;99.90;;;;;;4995729;28;20494;-77
2022/09/02 05:15:58;;;;;;;4.97;2.17;;;16.20;99.90;;;;;;4994965;28;20443;-77
2022/09/02 05:18:24;;;;;;;4.90;1.60;;;16.20;99.90;;;;;;4996096;28;20466;-76
2022/09/02 05:20:50;;;;;;;2.63;1.37;;;16.30;99.90;;;;;;4996388;28;20199;-74
2022/09/02 05:23:16;;;;;;;3.83;1.57;;;16.30;99.90;;;;;;4995817;28;20290;-76
2022/09/02 05:25:42;;;;;;;2.47;1.60;;;16.40;99.90;;;;;;4978228;28;20802;-75
2022/09/02 05:28:07;;;;;;;2.93;1.53;;;16.40;99.90;;;;;;4995669;28;20411;-79
2022/09/02 05:30:34;;;;;;;5.33;1.83;;;16.40;99.90;;;;;;4995003;28;20840;-78
2022/09/02 05:33:00;;;;;;;5.97;1.53;;;16.40;99.90;;;;;;4998209;28;20200;-78
2022/09/02 05:35:26;;;;;;;5.10;1.57;;;16.50;99.90;;;;;;4978208;28;20520;-77
2022/09/02 05:37:52;;;;;;;4.00;1.80;;;16.50;99.90;;;;;;4995494;28;20184;-76
2022/09/02 05:40:17;;;;;;;4.27;1.50;;;16.60;99.90;;;;;;4995220;28;20623;-76
2022/09/02 05:42:43;;;;;;;3.53;1.67;;;16.50;99.90;;;;;;4994491;28;20191;-78
2022/09/02 05:45:10;;;;;;;2.07;1.40;;;16.60;99.90;;;;;;4995493;28;20184;-78
2022/09/02 05:47:36;;;;;;;3.97;1.23;;;16.70;99.90;;;;;;4995461;28;20186;-78
2022/09/02 05:50:02;;;;;;;5.23;2.33;;;16.80;99.90;;;;;;4993646;28;20419;-78
2022/09/02 05:52:28;;;;;;;7.03;2.33;;;16.80;99.90;;;;;;4995067;28;20396;-75
2022/09/02 05:54:54;;;;;;;3.17;1.90;;;16.90;99.90;;;;;;4993792;28;20398;-78
2022/09/02 05:57:20;;;;;;;5.53;1.80;;;16.90;99.90;;;;;;4994805;28;20191;-77
2022/09/02 05:59:47;;;;;;;3.40;1.23;;;17.00;99.90;;;;;;4992671;28;20196;-76
2022/09/02 06:02:17;;;;;;;6.13;1.70;;;17.10;99.90;;;;;;4995045;28;20410;-77
2022/09/02 06:04:47;;;;;;;4.33;1.30;;;17.20;99.90;;;;;;4995150;28;20405;-76
2022/09/02 06:07:14;;;;;;;2.60;1.60;;;17.20;99.90;;;;;;4995385;28;20434;-77
2022/09/02 06:09:40;;;;;;;8.97;1.60;;;17.20;99.90;;;;;;4995088;28;20416;-77
2022/09/02 06:12:07;;;;;;;4.47;2.50;;;17.30;99.90;;;;;;4994889;28;20410;-77
2022/09/02 06:14:33;;;;;;;2.67;1.70;;;17.30;99.90;;;;;;4995027;28;20467;-77
2022/09/02 06:17:00;;;;;;;3.07;1.53;;;17.40;99.90;;;;;;4994870;28;20419;-77
2022/09/02 06:19:29;;;;;;;3.40;1.40;;;17.40;99.90;;;;;;4994731;28;20411;-77
2022/09/02 06:21:55;;;;;;;4.80;1.70;;;17.50;99.90;;;;;;4977288;28;20810;-77
2022/09/02 06:24:22;;;;;;;9.10;2.50;;;17.50;99.90;;;;;;4993633;28;20958;-77
2022/09/02 06:26:48;;;;;;;1.73;1.40;;;17.50;99.90;;;;;;4994771;28;20458;-77
2022/09/02 06:29:14;;;;;;;5.00;2.00;;;17.70;99.90;;;;;;4994596;28;20421;-76
2022/09/02 06:31:45;;;;;;;4.57;1.60;;;17.70;99.90;;;;;;4992434;28;20852;-76
2022/09/02 06:34:12;;;;;;;1.57;1.30;;;17.80;99.90;;;;;;4994471;28;20493;-77
2022/09/02 06:36:38;;;;;;;2.30;1.57;;;17.80;99.90;;;;;;4994552;28;20774;-77
2022/09/02 06:39:03;;;;;;;3.90;2.20;;;17.90;99.90;;;;;;4994606;28;20411;-77
2022/09/02 06:41:32;;;;;;;2.73;1.60;;;18.00;99.90;;;;;;4994144;28;20755;-77
2022/09/02 06:44:01;;;;;;;3.67;1.30;;;18.10;99.90;;;;;;4994391;28;20258;-76
2022/09/02 06:46:30;;;;;;;4.47;1.87;;;18.20;99.90;;;;;;4994208;28;20459;-77
2022/09/02 06:48:56;;;;;;;2.60;1.33;;;18.20;99.90;;;;;;4994288;28;20390;-77
2022/09/02 06:51:25;;;;;;;3.37;1.30;;;18.40;99.90;;;;;;4993947;28;20791;-76
2022/09/02 06:53:50;;;;;;;5.23;1.60;;;18.60;99.90;;;;;;4993194;28;20223;-77
2022/09/02 06:56:16;;;;;;;2.03;1.40;;;18.60;99.90;;;;;;4992418;28;20427;-76
2022/09/02 06:58:42;;;;;;;2.97;2.20;;;18.60;99.90;;;;;;4974112;28;20649;-76
2022/09/02 07:01:10;;;;;;;10.90;2.17;;;18.60;99.90;;;;;;4993847;28;20627;-77
2022/09/02 07:06:20;;;;;;;2.60;1.83;;;18.80;99.90;;;;;;4994125;28;20508;-78
2022/09/02 07:08:46;;;;;;;4.30;1.80;;;18.80;99.90;;;;;;4993699;28;20792;-76
2022/09/02 07:11:18;;;;;;;3.43;1.83;;;18.80;99.90;;;;;;4976243;28;20454;-76
2022/09/02 07:13:45;;;;;;;3.60;1.90;;;18.80;99.90;;;;;;4994118;28;20180;-79
2022/09/02 07:16:10;;;;;;;3.20;2.00;;;18.90;99.90;;;;;;4993995;28;20462;-78
2022/09/02 07:18:36;;;;;;;4.40;1.70;;;19.00;99.90;;;;;;4992680;28;20455;-78
2022/09/02 07:21:02;;;;;;;2.77;1.60;;;19.20;99.90;;;;;;4993530;28;20334;-79
2022/09/02 07:23:27;;;;;;;4.50;2.30;;;19.40;99.90;;;;;;4993971;28;20251;-79
2022/09/02 07:25:54;;;;;;;7.57;1.70;;;19.40;99.90;;;;;;4993918;28;20212;-78
2022/09/02 07:28:21;;;;;;;3.43;1.90;;;19.50;99.90;;;;;;4992710;28;20176;-78
2022/09/02 07:30:47;;;;;;;6.93;2.40;;;19.40;99.90;;;;;;4992842;28;20426;-78
2022/09/02 07:33:14;;;;;;;5.60;1.90;;;19.20;99.90;;;;;;4993425;28;20773;-77
2022/09/02 07:35:41;;;;;;;2.80;1.73;;;19.20;99.90;;;;;;4993256;28;20422;-78
2022/09/02 07:38:09;;;;;;;7.23;2.00;;;19.30;99.90;;;;;;4993831;28;20466;-77
2022/09/02 07:40:35;;;;;;;6.57;2.00;;;19.40;99.90;;;;;;4993140;28;20443;-77
2022/09/02 07:43:02;;;;;;;4.10;2.00;;;19.50;99.90;;;;;;4993679;28;20478;-77
2022/09/02 07:45:29;;;;;;;6.50;2.13;;;19.50;99.90;;;;;;4997062;28;20467;-76
2022/09/02 07:47:55;;;;;;;4.43;2.07;;;19.60;99.90;;;;;;4997736;28;20447;-76
2022/09/02 07:50:20;;;;;;;3.10;2.00;;;19.70;99.90;;;;;;4996033;28;20459;-77
2022/09/02 07:52:47;;;;;;;3.90;1.90;;;19.80;99.90;;;;;;4997310;28;20180;-76
2022/09/02 07:55:13;;;;;;;4.33;2.07;;;19.80;99.90;;;;;;4996377;28;20565;-77
2022/09/02 07:57:39;;;;;;;3.27;2.40;;;20.00;99.90;;;;;;4997549;28;20422;-76
2022/09/02 08:00:05;;;;;;;5.73;1.90;;;20.10;99.90;;;;;;4996944;28;20390;-76
2022/09/02 08:02:31;;;;;;;5.63;2.57;;;20.20;99.90;;;;;;4997441;28;20172;-76
2022/09/02 08:04:57;;;;;;;3.57;2.20;;;20.20;99.90;;;;;;4997599;28;21204;-76
2022/09/02 08:07:23;;;;;;;6.20;1.90;;;20.40;99.90;;;;;;4997549;28;20211;-80
2022/09/02 08:09:50;;;;;;;5.30;2.13;;;20.50;99.90;;;;;;4995681;28;20177;-78
2022/09/02 08:12:19;;;;;;;2.47;1.90;;;20.60;99.90;;;;;;4997357;28;20441;-78
2022/09/02 08:14:44;;;;;;;4.50;1.67;;;20.80;99.90;;;;;;4996792;28;20407;-77
2022/09/02 08:17:10;;;;;;;7.80;3.00;;;20.90;99.90;;;;;;4997791;28;20769;-77
2022/09/02 08:19:35;;;;;;;4.00;2.17;;;21.00;99.90;;;;;;4997566;28;20215;-79
2022/09/02 08:22:05;;;;;;;4.53;2.50;;;21.10;99.90;;;;;;4996456;28;20211;-78
2022/09/02 08:24:31;;;;;;;3.33;2.37;;;21.20;99.90;;;;;;4996617;28;20586;-78
2022/09/02 08:26:59;;;;;;;5.30;1.83;;;21.40;99.90;;;;;;4996481;28;20498;-76
2022/09/02 08:29:24;;;;;;;4.97;1.90;;;21.60;99.90;;;;;;4996201;28;20451;-77
2022/09/02 08:31:50;;;;;;;7.70;2.30;;;22.00;99.90;;;;;;4997744;28;20438;-78
2022/09/02 08:34:16;;;;;;;5.20;2.30;;;22.50;99.90;;;;;;4997337;28;20211;-79
2022/09/02 08:36:45;;;;;;;5.43;2.37;;;22.90;99.90;;;;;;4999030;28;20559;-77
2022/09/02 08:39:10;;;;;;;3.47;2.00;;;23.30;99.90;;;;;;4998127;28;20549;-77
2022/09/02 08:41:53;;;;;;;5.80;2.00;;;23.60;99.90;;;;;;4998528;28;20430;-76
2022/09/02 08:44:23;;;;;;;4.33;2.10;;;24.00;99.90;;;;;;4998021;28;20183;-78
2022/09/02 08:46:55;;;;;;;2.47;1.80;;;24.30;99.90;;;;;;4999000;28;20462;-78
2022/09/02 08:49:39;;;;;;;7.40;2.27;;;24.50;99.90;;;;;;4999185;28;20493;-76
2022/09/02 08:52:05;;;;;;;4.90;1.97;;;24.50;99.90;;;;;;4998357;28;20434;-76
2022/09/02 08:54:40;;;;;;;4.27;2.33;;;25.00;99.90;;;;;;4999093;28;20425;-81
2022/09/02 08:57:08;;;;;;;4.23;2.33;;;25.50;99.90;;;;;;4996563;28;20949;-79
2022/09/02 08:59:35;;;;;;;1.77;1.57;;;25.90;99.90;;;;;;4996517;28;20411;-80
2022/09/02 09:02:09;;;;;;;5.00;2.03;;;25.90;99.90;;;;;;4998545;28;20438;-78
2022/09/02 09:04:35;;;;;;;3.00;2.00;;;26.30;99.90;;;;;;4999391;28;20422;-76
2022/09/02 09:07:17;;;;;;;2.67;1.80;;;26.60;99.90;;;;;;5000240;28;20994;-79
2022/09/02 09:09:43;;;;;;;4.23;1.87;;;25.80;99.90;;;;;;4996658;28;20172;-76
2022/09/02 09:12:44;;;;;;;2.47;1.53;;;26.10;99.90;;;;;;4996531;28;20942;-78
2022/09/02 09:15:17;;;;;;;3.00;2.03;;;26.80;99.90;;;;;;4995495;28;20175;-78
2022/09/02 09:17:56;;;;;;;2.07;1.50;;;27.10;99.90;;;;;;4995438;28;20422;-80
2022/09/02 09:20:28;;;;;;;2.27;1.83;;;26.70;99.90;;;;;;4996654;28;20496;-77
2022/09/02 09:22:57;;;;;;;5.40;2.00;;;27.20;99.90;;;;;;4998289;28;20483;-78
2022/09/02 09:25:28;;;;;;;2.90;1.67;;;27.10;99.90;;;;;;4997707;28;20426;-76
2022/09/02 09:28:00;;;;;;;1.60;1.50;;;27.20;99.80;;;;;;4998296;28;20411;-79
2022/09/02 09:30:27;;;;;;;4.70;1.90;;;27.20;98.50;;;;;;4997407;28;20512;-77
2022/09/02 09:32:59;;;;;;;3.63;1.97;;;27.40;99.10;;;;;;4997319;28;20419;-80
2022/09/02 09:35:26;;;;;;;1.80;1.70;;;27.80;98.20;;;;;;4997725;28;20435;-78
2022/09/02 09:37:54;;;;;;;2.07;1.50;;;27.90;96.50;;;;;;4998572;28;20410;-76
2022/09/02 09:40:23;;;;;;;2.80;1.60;;;28.40;96.20;;;;;;4996854;28;20897;-78
2022/09/02 09:43:12;;;;;;;2.60;1.60;;;28.40;94.40;;;;;;4996358;28;20415;-78
2022/09/02 09:45:42;;;;;;;4.57;1.47;;;28.80;93.10;;;;;;4997451;28;20454;-80
2022/09/02 09:48:28;;;;;;;5.50;1.33;;;28.60;92.90;;;;;;4997631;28;20854;-79
2022/09/02 09:50:56;;;;;;;3.83;1.63;;;28.40;92.60;;;;;;4996991;28;20426;-77
2022/09/02 09:53:24;;;;;;;3.73;1.33;;;28.50;92.60;;;;;;4997282;28;20490;-76
2022/09/02 09:55:53;;;;;;;1.70;1.40;;;28.60;89.20;;;;;;4997150;28;20446;-76
2022/09/02 09:58:20;;;;;;;5.13;1.50;;;29.30;83.30;;;;;;4996137;28;20419;-77
2022/09/02 10:00:46;;;;;;;5.17;1.67;;;29.90;84.00;;;;;;4996863;28;20442;-77
2022/09/02 10:03:25;;;;;;;1.80;1.33;;;29.60;83.50;;;;;;5320920;23;20517;-76
2022/09/02 10:05:57;;;;;;;2.07;1.17;;;30.10;82.90;;;;;;4996166;28;20207;-77
2022/09/02 10:08:27;;;;;;;2.73;1.37;;;29.80;73.20;;;;;;4996290;28;20438;-76
2022/09/02 10:11:01;;;;;;;2.00;1.30;;;29.20;73.10;;;;;;4994396;28;20442;-79
2022/09/02 10:13:30;;;;;;;1.80;1.20;;;29.10;70.40;;;;;;4994133;28;20433;-77
2022/09/02 10:16:03;;;;;;;1.33;1.10;;;28.50;71.70;;;;;;4995073;28;20437;-78
2022/09/02 10:18:46;;;;;;;2.17;1.50;;;28.90;69.10;;;;;;4994196;28;20515;-78
2022/09/02 10:21:26;;;;;;;1.53;1.40;;;28.40;67.50;;;;;;4993533;28;20450;-78
2022/09/02 10:24:17;;;;;;;2.23;1.30;;;28.90;67.10;;;;;;4994958;28;20852;-77
2022/09/02 10:26:52;;;;;;;4.70;1.17;;;29.00;66.00;;;;;;4994937;28;20459;-76
2022/09/02 10:29:17;;;;;;;2.33;1.40;;;28.70;65.50;;;;;;4994978;28;20768;-76
2022/09/02 10:32:03;;;;;;;3.93;1.13;;;29.10;65.30;;;;;;4994730;28;20434;-78
2022/09/02 10:34:44;;;;;;;3.73;1.03;;;29.80;64.00;;;;;;4986471;28;20186;-78
2022/09/02 10:37:59;;;;;;;1.70;1.10;;;29.70;62.30;;;;;;4993507;28;20957;-78
2022/09/02 10:40:51;;;;;;;2.40;1.20;;;29.60;61.10;;;;;;4977965;28;20451;-80
2022/09/02 10:43:53;;;;;;;1.97;1.20;;;28.90;61.50;;;;;;4994542;28;20819;-76
2022/09/02 10:46:23;;;;;;;2.40;1.13;;;28.50;62.50;;;;;;4994454;28;20465;-78
2022/09/02 10:49:12;;;;;;;1.90;1.10;;;29.20;62.60;;;;;;4994416;28;20437;-76
2022/09/02 10:51:50;;;;;;;1.30;1.20;;;29.60;62.10;;;;;;4992987;28;20469;-79
2022/09/02 10:54:24;;;;;;;1.63;1.00;;;29.80;59.40;;;;;;5086196;23;20498;-77
2022/09/02 10:56:58;;;;;;;2.60;1.40;;;29.90;59.60;;;;;;4994365;28;20438;-79
2022/09/02 10:59:46;;;;;;;2.03;1.40;;;29.40;58.60;;;;;;4994441;28;20411;-77
2022/09/02 11:02:51;;;;;;;3.30;1.00;;;29.80;58.60;;;;;;4992481;28;20529;-76
2022/09/02 11:05:47;;;;;;;4.10;1.30;;;30.10;56.40;;;;;;4987198;28;20422;-76
2022/09/02 11:08:45;;;;;;;1.70;1.10;;;30.40;55.00;;;;;;4993952;28;20434;-78
2022/09/02 11:11:20;;;;;;;3.37;1.10;;;30.50;55.00;;;;;;4989871;28;20447;-80
2022/09/02 11:13:46;;;;;;;1.70;1.27;;;31.00;54.20;;;;;;4994279;28;20416;-79
2022/09/02 11:16:21;;;;;;;1.97;1.00;;;30.70;52.70;;;;;;4994111;28;21355;-78
2022/09/02 11:19:01;;;;;;;1.80;0.87;;;31.00;52.90;;;;;;4992792;28;20669;-79
2022/09/02 11:21:33;;;;;;;1.63;1.20;;;31.30;52.00;;;;;;4993742;28;20554;-78
2022/09/02 11:24:07;;;;;;;4.87;1.17;;;31.30;51.80;;;;;;4993795;28;20805;-76
2022/09/02 11:26:39;;;;;;;1.20;1.10;;;31.30;51.50;;;;;;4993877;28;20494;-75
2022/09/02 11:29:09;;;;;;;3.20;1.30;;;31.30;51.50;;;;;;4993918;28;20798;-80
2022/09/02 11:31:57;;;;;;;2.27;1.03;;;31.30;51.40;;;;;;4993444;28;20477;-78
2022/09/02 11:34:40;;;;;;;2.47;1.20;;;31.40;50.70;;;;;;4994046;28;20391;-81
2022/09/02 11:37:12;;;;;;;1.20;1.10;;;31.60;50.20;;;;;;4992508;28;20791;-78
2022/09/02 11:39:51;;;;;;;3.13;1.13;;;31.80;49.90;;;;;;4993763;28;20422;-75
2022/09/02 11:42:35;;;;;;;2.03;1.10;;;31.90;49.90;;;;;;4976349;28;20693;-78
2022/09/02 11:45:04;;;;;;;3.53;1.73;;;32.00;48.70;;;;;;4993667;28;20427;-76
2022/09/02 11:48:00;;;;;;;1.63;1.10;;;31.90;48.80;;;;;;4993681;28;20525;-78
2022/09/02 11:50:39;;;;;;;4.00;1.37;;;31.90;48.80;;;;;;4993193;28;20478;-77
2022/09/02 11:53:28;;;;;;;2.60;1.20;;;32.50;48.70;;;;;;4993729;28;20411;-78
2022/09/02 11:55:55;;;;;;;1.57;1.23;;;32.60;47.20;;;;;;4993552;28;20431;-77
2022/09/02 11:58:36;;;;;;;2.40;1.20;;;32.60;47.40;;;;;;4992645;28;20802;-77
2022/09/02 12:01:18;;;;;;;7.63;1.37;;;33.30;47.30;;;;;;4993092;28;20435;-78
2022/09/02 12:04:00;;;;;;;1.77;1.27;;;33.30;46.40;;;;;;4993968;28;20407;-79
2022/09/02 12:06:26;;;;;;;1.60;1.20;;;33.20;47.20;;;;;;4993461;28;20490;-78
2022/09/02 12:08:53;;;;;;;2.83;1.30;;;33.60;46.70;;;;;;4993580;28;20434;-77
2022/09/02 12:11:41;;;;;;;1.63;1.27;;;33.80;46.60;;;;;;4993190;28;20442;-79
2022/09/02 12:14:20;;;;;;;1.67;1.20;;;33.80;46.10;;;;;;4993439;28;20418;-78
2022/09/02 12:17:03;;;;;;;1.97;1.10;;;33.90;45.00;;;;;;4993592;28;20411;-76
2022/09/02 12:19:41;;;;;;;1.60;1.13;;;33.20;45.30;;;;;;4992207;28;20419;-79
2022/09/02 12:22:16;;;;;;;1.60;1.30;;;33.00;45.70;;;;;;4992187;28;20430;-78
2022/09/02 12:24:52;;;;;;;1.10;1.00;;;33.00;46.30;;;;;;4992253;28;20414;-76
2022/09/02 12:27:37;;;;;;;1.23;1.10;;;33.50;45.60;;;;;;4993435;28;20512;-77
2022/09/02 12:30:10;;;;;;;3.30;1.30;;;33.50;45.20;;;;;;4994497;28;20497;-80
2022/09/02 12:32:44;;;;;;;1.83;1.30;;;33.90;45.10;;;;;;4996836;28;20425;-77
2022/09/02 12:35:27;;;;;;;3.43;0.93;;;34.10;44.60;;;;;;4995663;28;20418;-77
2022/09/02 12:38:13;;;;;;;1.77;1.10;;;34.20;44.30;;;;;;4996914;28;20410;-78
2022/09/02 12:40:54;;;;;;;2.70;1.20;;;34.50;43.60;;;;;;4995811;28;20443;-77
2022/09/02 12:43:31;;;;;;;2.00;1.37;;;34.60;43.50;;;;;;4995568;28;20414;-77
2022/09/02 12:46:12;;;;;;;1.80;1.40;;;34.40;43.30;;;;;;4996639;28;20489;-75
2022/09/02 12:48:43;;;;;;;1.50;1.20;;;33.40;44.30;;;;;;4996498;28;20488;-75
2022/09/02 12:51:09;;;;;;;1.60;1.50;;;33.70;44.10;;;;;;4996301;28;20427;-76
2022/09/02 12:53:41;;;;;;;3.43;1.23;;;34.40;43.90;;;;;;4996758;28;20469;-75
2022/09/02 12:56:23;;;;;;;3.80;1.33;;;34.10;43.40;;;;;;4996587;28;20250;-76
2022/09/02 12:58:56;;;;;;;2.83;1.20;;;34.20;43.80;;;;;;4996366;28;20513;-76
2022/09/02 13:01:59;;;;;;;1.80;1.23;;;34.30;43.30;;;;;;4996140;28;21008;-75
2022/09/02 13:05:02;;;;;;;2.80;1.10;;;34.10;43.40;;;;;;4995173;28;20453;-76
2022/09/02 13:08:08;;;;;;;2.00;1.63;;;34.70;43.80;;;;;;4996091;28;20466;-76
2022/09/02 13:10:47;;;;;;;3.27;1.53;;;34.50;43.70;;;;;;4995761;28;20426;-75